sensor_id;sensor_type;location;lat;lon;timestamp;P1;durP1;ratioP1;P2;durP2;ratioP2
20375;SDS011;10347;51.828;6.466;2023-08-01T00:00:30;1.60;;;1.50;;
20375;SDS011;10347;51.828;6.466;2023-08-01T00:02:55;1.35;;;1.30;;
20375;SDS011;10347;51.828;6.466;2023-08-01T00:05:21;1.80;;;1.70;;
20375;SDS011;10347;51.828;6.466;2023-08-01T00:07:47;1.63;;;1.52;;
20375;SDS011;10347;51.828;6.466;2023-08-01T00:10:12;1.70;;;1.60;;
20375;SDS011;10347;51.828;6.466;2023-08-01T00:12:38;1.60;;;1.50;;
20375;SDS011;10347;51.828;6.466;2023-08-01T00:15:03;6.47;;;1.95;;
20375;SDS011;10347;51.828;6.466;2023-08-01T00:17:29;2.42;;;1.80;;
20375;SDS011;10347;51.828;6.466;2023-08-01T00:19:55;2.90;;;2.20;;
20375;SDS011;10347;51.828;6.466;2023-08-01T00:22:20;3.20;;;1.80;;
20375;SDS011;10347;51.828;6.466;2023-08-01T00:24:46;1.80;;;1.70;;
20375;SDS011;10347;51.828;6.466;2023-08-01T00:27:12;2.42;;;2.22;;
20375;SDS011;10347;51.828;6.466;2023-08-01T00:29:38;2.05;;;1.95;;
20375;SDS011;10347;51.828;6.466;2023-08-01T00:32:04;2.63;;;2.40;;
20375;SDS011;10347;51.828;6.466;2023-08-01T00:34:30;2.20;;;2.10;;
20375;SDS011;10347;51.828;6.466;2023-08-01T00:36:56;2.33;;;2.17;;
20375;SDS011;10347;51.828;6.466;2023-08-01T00:39:22;2.58;;;2.33;;
20375;SDS011;10347;51.828;6.466;2023-08-01T00:41:47;3.35;;;2.42;;
20375;SDS011;10347;51.828;6.466;2023-08-01T00:44:13;1.95;;;1.85;;
20375;SDS011;10347;51.828;6.466;2023-08-01T00:46:38;2.17;;;2.08;;
20375;SDS011;10347;51.828;6.466;2023-08-01T00:49:04;2.97;;;2.60;;
20375;SDS011;10347;51.828;6.466;2023-08-01T00:51:30;2.75;;;2.55;;
20375;SDS011;10347;51.828;6.466;2023-08-01T00:53:57;2.45;;;2.35;;
20375;SDS011;10347;51.828;6.466;2023-08-01T00:56:23;3.22;;;2.92;;
20375;SDS011;10347;51.828;6.466;2023-08-01T00:58:49;2.00;;;1.90;;
20375;SDS011;10347;51.828;6.466;2023-08-01T01:01:14;2.40;;;2.30;;
20375;SDS011;10347;51.828;6.466;2023-08-01T01:03:40;2.25;;;2.15;;
20375;SDS011;10347;51.828;6.466;2023-08-01T01:06:08;2.50;;;2.30;;
20375;SDS011;10347;51.828;6.466;2023-08-01T01:08:37;3.08;;;2.78;;
20375;SDS011;10347;51.828;6.466;2023-08-01T01:11:04;4.55;;;2.80;;
20375;SDS011;10347;51.828;6.466;2023-08-01T01:13:29;3.45;;;3.15;;
20375;SDS011;10347;51.828;6.466;2023-08-01T01:15:55;2.78;;;2.58;;
20375;SDS011;10347;51.828;6.466;2023-08-01T01:18:20;4.05;;;2.85;;
20375;SDS011;10347;51.828;6.466;2023-08-01T01:20:46;4.07;;;3.20;;
20375;SDS011;10347;51.828;6.466;2023-08-01T01:23:11;3.40;;;3.10;;
20375;SDS011;10347;51.828;6.466;2023-08-01T01:25:37;3.65;;;3.28;;
20375;SDS011;10347;51.828;6.466;2023-08-01T01:28:05;3.75;;;3.25;;
20375;SDS011;10347;51.828;6.466;2023-08-01T01:30:32;5.28;;;3.60;;
20375;SDS011;10347;51.828;6.466;2023-08-01T01:32:58;4.32;;;3.55;;
20375;SDS011;10347;51.828;6.466;2023-08-01T01:35:25;5.65;;;3.42;;
20375;SDS011;10347;51.828;6.466;2023-08-01T01:37:50;4.65;;;3.38;;
20375;SDS011;10347;51.828;6.466;2023-08-01T01:40:16;4.28;;;3.67;;
20375;SDS011;10347;51.828;6.466;2023-08-01T01:42:42;4.15;;;3.72;;
20375;SDS011;10347;51.828;6.466;2023-08-01T01:45:07;4.70;;;3.80;;
20375;SDS011;10347;51.828;6.466;2023-08-01T01:47:33;6.38;;;4.15;;
20375;SDS011;10347;51.828;6.466;2023-08-01T01:49:59;5.72;;;4.35;;
20375;SDS011;10347;51.828;6.466;2023-08-01T01:52:24;6.45;;;4.40;;
20375;SDS011;10347;51.828;6.466;2023-08-01T01:54:50;6.47;;;4.00;;
20375;SDS011;10347;51.828;6.466;2023-08-01T01:57:15;4.32;;;3.88;;
20375;SDS011;10347;51.828;6.466;2023-08-01T01:59:41;5.82;;;3.67;;
20375;SDS011;10347;51.828;6.466;2023-08-01T02:02:06;3.70;;;3.40;;
20375;SDS011;10347;51.828;6.466;2023-08-01T02:04:32;3.97;;;3.58;;
20375;SDS011;10347;51.828;6.466;2023-08-01T02:06:57;4.45;;;3.80;;
20375;SDS011;10347;51.828;6.466;2023-08-01T02:09:23;4.18;;;3.78;;
20375;SDS011;10347;51.828;6.466;2023-08-01T02:11:49;4.45;;;4.05;;
20375;SDS011;10347;51.828;6.466;2023-08-01T02:14:14;6.10;;;3.90;;
20375;SDS011;10347;51.828;6.466;2023-08-01T02:16:40;6.53;;;3.95;;
20375;SDS011;10347;51.828;6.466;2023-08-01T02:19:06;6.22;;;4.30;;
20375;SDS011;10347;51.828;6.466;2023-08-01T02:21:31;5.32;;;4.13;;
20375;SDS011;10347;51.828;6.466;2023-08-01T02:23:57;4.55;;;3.65;;
20375;SDS011;10347;51.828;6.466;2023-08-01T02:26:22;4.05;;;3.65;;
20375;SDS011;10347;51.828;6.466;2023-08-01T02:28:49;5.80;;;3.72;;
20375;SDS011;10347;51.828;6.466;2023-08-01T02:31:15;4.15;;;3.50;;
20375;SDS011;10347;51.828;6.466;2023-08-01T02:33:41;5.15;;;3.40;;
20375;SDS011;10347;51.828;6.466;2023-08-01T02:36:07;4.00;;;3.13;;
20375;SDS011;10347;51.828;6.466;2023-08-01T02:38:32;4.72;;;2.78;;
20375;SDS011;10347;51.828;6.466;2023-08-01T02:40:58;3.28;;;2.70;;
20375;SDS011;10347;51.828;6.466;2023-08-01T02:43:23;5.05;;;2.83;;
20375;SDS011;10347;51.828;6.466;2023-08-01T02:45:49;3.78;;;2.90;;
20375;SDS011;10347;51.828;6.466;2023-08-01T02:48:14;4.90;;;2.92;;
20375;SDS011;10347;51.828;6.466;2023-08-01T02:50:40;4.75;;;2.70;;
20375;SDS011;10347;51.828;6.466;2023-08-01T02:53:06;4.05;;;2.72;;
20375;SDS011;10347;51.828;6.466;2023-08-01T02:55:31;3.60;;;2.90;;
20375;SDS011;10347;51.828;6.466;2023-08-01T02:57:57;6.38;;;2.50;;
20375;SDS011;10347;51.828;6.466;2023-08-01T03:00:22;4.28;;;2.40;;
20375;SDS011;10347;51.828;6.466;2023-08-01T03:02:48;4.35;;;2.42;;
20375;SDS011;10347;51.828;6.466;2023-08-01T03:05:13;3.45;;;2.53;;
20375;SDS011;10347;51.828;6.466;2023-08-01T03:07:39;4.40;;;2.42;;
20375;SDS011;10347;51.828;6.466;2023-08-01T03:10:05;4.53;;;2.40;;
20375;SDS011;10347;51.828;6.466;2023-08-01T03:12:31;3.53;;;2.70;;
20375;SDS011;10347;51.828;6.466;2023-08-01T03:14:57;6.55;;;2.75;;
20375;SDS011;10347;51.828;6.466;2023-08-01T03:17:23;6.97;;;3.70;;
20375;SDS011;10347;51.828;6.466;2023-08-01T03:19:49;6.68;;;2.88;;
20375;SDS011;10347;51.828;6.466;2023-08-01T03:22:14;3.42;;;2.90;;
20375;SDS011;10347;51.828;6.466;2023-08-01T03:24:40;3.30;;;2.97;;
20375;SDS011;10347;51.828;6.466;2023-08-01T03:27:05;4.65;;;3.50;;
20375;SDS011;10347;51.828;6.466;2023-08-01T03:29:31;7.93;;;3.70;;
20375;SDS011;10347;51.828;6.466;2023-08-01T03:31:56;6.22;;;3.10;;
20375;SDS011;10347;51.828;6.466;2023-08-01T03:34:22;5.47;;;3.50;;
20375;SDS011;10347;51.828;6.466;2023-08-01T03:36:47;4.53;;;3.33;;
20375;SDS011;10347;51.828;6.466;2023-08-01T03:39:13;6.78;;;3.65;;
20375;SDS011;10347;51.828;6.466;2023-08-01T03:41:38;5.10;;;3.50;;
20375;SDS011;10347;51.828;6.466;2023-08-01T03:44:04;7.55;;;3.53;;
20375;SDS011;10347;51.828;6.466;2023-08-01T03:46:30;7.40;;;4.50;;
20375;SDS011;10347;51.828;6.466;2023-08-01T03:48:55;5.90;;;3.88;;
20375;SDS011;10347;51.828;6.466;2023-08-01T03:51:21;6.93;;;4.00;;
20375;SDS011;10347;51.828;6.466;2023-08-01T03:53:47;7.75;;;4.28;;
20375;SDS011;10347;51.828;6.466;2023-08-01T03:56:13;7.25;;;4.60;;
20375;SDS011;10347;51.828;6.466;2023-08-01T03:58:38;5.03;;;4.15;;
20375;SDS011;10347;51.828;6.466;2023-08-01T04:01:04;6.10;;;4.10;;
20375;SDS011;10347;51.828;6.466;2023-08-01T04:03:31;8.98;;;4.35;;
20375;SDS011;10347;51.828;6.466;2023-08-01T04:05:57;8.15;;;4.75;;
20375;SDS011;10347;51.828;6.466;2023-08-01T04:08:22;7.18;;;4.07;;
20375;SDS011;10347;51.828;6.466;2023-08-01T04:10:48;9.00;;;4.32;;
20375;SDS011;10347;51.828;6.466;2023-08-01T04:13:15;5.63;;;4.07;;
20375;SDS011;10347;51.828;6.466;2023-08-01T04:15:40;8.30;;;4.43;;
20375;SDS011;10347;51.828;6.466;2023-08-01T04:18:06;10.13;;;4.68;;
20375;SDS011;10347;51.828;6.466;2023-08-01T04:20:31;9.93;;;5.00;;
20375;SDS011;10347;51.828;6.466;2023-08-01T04:22:57;6.22;;;4.65;;
20375;SDS011;10347;51.828;6.466;2023-08-01T04:25:23;9.50;;;4.65;;
20375;SDS011;10347;51.828;6.466;2023-08-01T04:27:51;12.30;;;5.05;;
20375;SDS011;10347;51.828;6.466;2023-08-01T04:30:17;11.20;;;5.22;;
20375;SDS011;10347;51.828;6.466;2023-08-01T04:32:43;8.15;;;4.63;;
20375;SDS011;10347;51.828;6.466;2023-08-01T04:35:08;7.82;;;5.18;;
20375;SDS011;10347;51.828;6.466;2023-08-01T04:37:34;9.15;;;5.05;;
20375;SDS011;10347;51.828;6.466;2023-08-01T04:39:59;8.02;;;4.93;;
20375;SDS011;10347;51.828;6.466;2023-08-01T04:42:25;6.35;;;4.57;;
20375;SDS011;10347;51.828;6.466;2023-08-01T04:44:50;9.70;;;4.85;;
20375;SDS011;10347;51.828;6.466;2023-08-01T04:47:17;10.55;;;6.03;;
20375;SDS011;10347;51.828;6.466;2023-08-01T04:49:42;14.60;;;5.65;;
20375;SDS011;10347;51.828;6.466;2023-08-01T04:52:08;8.30;;;4.90;;
20375;SDS011;10347;51.828;6.466;2023-08-01T04:54:33;13.20;;;5.57;;
20375;SDS011;10347;51.828;6.466;2023-08-01T04:56:59;6.90;;;4.95;;
20375;SDS011;10347;51.828;6.466;2023-08-01T04:59:24;11.68;;;6.18;;
20375;SDS011;10347;51.828;6.466;2023-08-01T05:01:50;8.50;;;4.95;;
20375;SDS011;10347;51.828;6.466;2023-08-01T05:04:15;8.35;;;5.30;;
20375;SDS011;10347;51.828;6.466;2023-08-01T05:06:41;8.05;;;4.82;;
20375;SDS011;10347;51.828;6.466;2023-08-01T05:09:06;11.13;;;6.45;;
20375;SDS011;10347;51.828;6.466;2023-08-01T05:11:32;6.55;;;5.00;;
20375;SDS011;10347;51.828;6.466;2023-08-01T05:13:57;11.73;;;5.72;;
20375;SDS011;10347;51.828;6.466;2023-08-01T05:16:23;9.30;;;5.85;;
20375;SDS011;10347;51.828;6.466;2023-08-01T05:18:48;10.70;;;5.90;;
20375;SDS011;10347;51.828;6.466;2023-08-01T05:21:14;11.00;;;6.00;;
20375;SDS011;10347;51.828;6.466;2023-08-01T05:23:39;8.98;;;5.65;;
20375;SDS011;10347;51.828;6.466;2023-08-01T05:26:05;9.35;;;5.80;;
20375;SDS011;10347;51.828;6.466;2023-08-01T05:28:30;11.85;;;6.10;;
20375;SDS011;10347;51.828;6.466;2023-08-01T05:30:56;11.77;;;7.22;;
20375;SDS011;10347;51.828;6.466;2023-08-01T05:33:22;10.30;;;6.55;;
20375;SDS011;10347;51.828;6.466;2023-08-01T05:35:48;14.40;;;7.70;;
20375;SDS011;10347;51.828;6.466;2023-08-01T05:38:15;10.95;;;6.85;;
20375;SDS011;10347;51.828;6.466;2023-08-01T05:40:41;9.70;;;6.43;;
20375;SDS011;10347;51.828;6.466;2023-08-01T05:43:06;13.32;;;7.00;;
20375;SDS011;10347;51.828;6.466;2023-08-01T05:45:33;10.07;;;6.80;;
20375;SDS011;10347;51.828;6.466;2023-08-01T05:47:59;11.15;;;6.20;;
20375;SDS011;10347;51.828;6.466;2023-08-01T05:50:25;10.95;;;6.50;;
20375;SDS011;10347;51.828;6.466;2023-08-01T05:52:51;12.70;;;7.07;;
20375;SDS011;10347;51.828;6.466;2023-08-01T05:55:17;15.27;;;7.82;;
20375;SDS011;10347;51.828;6.466;2023-08-01T05:57:42;11.73;;;7.55;;
20375;SDS011;10347;51.828;6.466;2023-08-01T06:00:08;10.85;;;6.90;;
20375;SDS011;10347;51.828;6.466;2023-08-01T06:02:34;13.00;;;7.70;;
20375;SDS011;10347;51.828;6.466;2023-08-01T06:04:59;13.02;;;7.15;;
20375;SDS011;10347;51.828;6.466;2023-08-01T06:07:25;14.13;;;7.65;;
20375;SDS011;10347;51.828;6.466;2023-08-01T06:09:51;11.05;;;7.00;;
20375;SDS011;10347;51.828;6.466;2023-08-01T06:12:17;15.15;;;7.90;;
20375;SDS011;10347;51.828;6.466;2023-08-01T06:14:43;10.00;;;7.00;;
20375;SDS011;10347;51.828;6.466;2023-08-01T06:17:09;10.93;;;6.82;;
20375;SDS011;10347;51.828;6.466;2023-08-01T06:19:35;13.85;;;7.30;;
20375;SDS011;10347;51.828;6.466;2023-08-01T06:22:00;10.90;;;7.00;;
20375;SDS011;10347;51.828;6.466;2023-08-01T06:24:26;11.25;;;6.63;;
20375;SDS011;10347;51.828;6.466;2023-08-01T06:26:51;16.15;;;7.82;;
20375;SDS011;10347;51.828;6.466;2023-08-01T06:29:17;15.80;;;7.65;;
20375;SDS011;10347;51.828;6.466;2023-08-01T06:31:42;11.63;;;6.10;;
20375;SDS011;10347;51.828;6.466;2023-08-01T06:34:08;11.45;;;6.40;;
20375;SDS011;10347;51.828;6.466;2023-08-01T06:36:33;9.50;;;6.57;;
20375;SDS011;10347;51.828;6.466;2023-08-01T06:39:00;12.57;;;6.65;;
20375;SDS011;10347;51.828;6.466;2023-08-01T06:41:26;11.27;;;7.03;;
20375;SDS011;10347;51.828;6.466;2023-08-01T06:43:52;13.02;;;6.35;;
20375;SDS011;10347;51.828;6.466;2023-08-01T06:46:18;11.00;;;7.53;;
20375;SDS011;10347;51.828;6.466;2023-08-01T06:48:43;10.90;;;6.57;;
20375;SDS011;10347;51.828;6.466;2023-08-01T06:51:09;15.40;;;8.00;;
20375;SDS011;10347;51.828;6.466;2023-08-01T06:53:35;11.77;;;7.50;;
20375;SDS011;10347;51.828;6.466;2023-08-01T06:56:00;11.98;;;7.32;;
20375;SDS011;10347;51.828;6.466;2023-08-01T06:58:26;13.52;;;7.80;;
20375;SDS011;10347;51.828;6.466;2023-08-01T07:00:51;11.93;;;6.97;;
20375;SDS011;10347;51.828;6.466;2023-08-01T07:03:17;11.02;;;6.20;;
20375;SDS011;10347;51.828;6.466;2023-08-01T07:05:42;10.50;;;6.65;;
20375;SDS011;10347;51.828;6.466;2023-08-01T07:08:08;13.93;;;6.80;;
20375;SDS011;10347;51.828;6.466;2023-08-01T07:10:37;10.02;;;6.47;;
20375;SDS011;10347;51.828;6.466;2023-08-01T07:13:03;13.43;;;6.13;;
20375;SDS011;10347;51.828;6.466;2023-08-01T07:15:29;6.70;;;4.90;;
20375;SDS011;10347;51.828;6.466;2023-08-01T07:17:56;10.00;;;5.30;;
20375;SDS011;10347;51.828;6.466;2023-08-01T07:20:22;10.75;;;5.38;;
20375;SDS011;10347;51.828;6.466;2023-08-01T07:22:47;10.18;;;5.70;;
20375;SDS011;10347;51.828;6.466;2023-08-01T07:25:13;10.10;;;5.95;;
20375;SDS011;10347;51.828;6.466;2023-08-01T07:27:38;10.32;;;6.07;;
20375;SDS011;10347;51.828;6.466;2023-08-01T07:30:04;9.70;;;5.80;;
20375;SDS011;10347;51.828;6.466;2023-08-01T07:32:30;8.55;;;5.10;;
20375;SDS011;10347;51.828;6.466;2023-08-01T07:34:56;10.55;;;5.75;;
20375;SDS011;10347;51.828;6.466;2023-08-01T07:37:21;11.80;;;6.05;;
20375;SDS011;10347;51.828;6.466;2023-08-01T07:39:47;9.25;;;5.10;;
20375;SDS011;10347;51.828;6.466;2023-08-01T07:42:14;13.10;;;6.03;;
20375;SDS011;10347;51.828;6.466;2023-08-01T07:44:40;6.88;;;4.50;;
20375;SDS011;10347;51.828;6.466;2023-08-01T07:47:05;6.93;;;4.80;;
20375;SDS011;10347;51.828;6.466;2023-08-01T07:49:31;9.27;;;4.57;;
20375;SDS011;10347;51.828;6.466;2023-08-01T07:51:56;9.35;;;4.40;;
20375;SDS011;10347;51.828;6.466;2023-08-01T07:54:23;9.40;;;4.60;;
20375;SDS011;10347;51.828;6.466;2023-08-01T07:56:49;11.10;;;4.22;;
20375;SDS011;10347;51.828;6.466;2023-08-01T07:59:14;8.00;;;3.90;;
20375;SDS011;10347;51.828;6.466;2023-08-01T08:01:40;8.30;;;3.58;;
20375;SDS011;10347;51.828;6.466;2023-08-01T08:04:06;8.35;;;3.90;;
20375;SDS011;10347;51.828;6.466;2023-08-01T08:06:32;7.47;;;4.18;;
20375;SDS011;10347;51.828;6.466;2023-08-01T08:08:57;5.70;;;3.15;;
20375;SDS011;10347;51.828;6.466;2023-08-01T08:11:23;8.18;;;3.50;;
20375;SDS011;10347;51.828;6.466;2023-08-01T08:13:48;8.00;;;3.70;;
20375;SDS011;10347;51.828;6.466;2023-08-01T08:16:14;10.68;;;4.20;;
20375;SDS011;10347;51.828;6.466;2023-08-01T08:18:40;5.30;;;3.42;;
20375;SDS011;10347;51.828;6.466;2023-08-01T08:21:06;6.45;;;3.17;;
20375;SDS011;10347;51.828;6.466;2023-08-01T08:23:32;8.57;;;4.05;;
20375;SDS011;10347;51.828;6.466;2023-08-01T08:25:57;8.02;;;3.75;;
20375;SDS011;10347;51.828;6.466;2023-08-01T08:28:30;10.30;;;3.70;;
20375;SDS011;10347;51.828;6.466;2023-08-01T08:30:58;8.85;;;3.65;;
20375;SDS011;10347;51.828;6.466;2023-08-01T08:33:24;4.68;;;3.20;;
20375;SDS011;10347;51.828;6.466;2023-08-01T08:35:49;8.35;;;3.15;;
20375;SDS011;10347;51.828;6.466;2023-08-01T08:38:16;6.68;;;3.08;;
20375;SDS011;10347;51.828;6.466;2023-08-01T08:40:45;5.97;;;3.30;;
20375;SDS011;10347;51.828;6.466;2023-08-01T08:43:33;7.88;;;3.00;;
20375;SDS011;10347;51.828;6.466;2023-08-01T08:46:00;5.55;;;3.15;;
20375;SDS011;10347;51.828;6.466;2023-08-01T08:48:26;6.75;;;3.03;;
20375;SDS011;10347;51.828;6.466;2023-08-01T08:50:53;8.43;;;3.35;;
20375;SDS011;10347;51.828;6.466;2023-08-01T08:53:21;7.00;;;2.85;;
20375;SDS011;10347;51.828;6.466;2023-08-01T08:55:48;8.52;;;3.00;;
20375;SDS011;10347;51.828;6.466;2023-08-01T08:58:14;6.95;;;2.97;;
20375;SDS011;10347;51.828;6.466;2023-08-01T09:00:40;5.30;;;2.85;;
20375;SDS011;10347;51.828;6.466;2023-08-01T09:03:06;8.57;;;3.50;;
20375;SDS011;10347;51.828;6.466;2023-08-01T09:05:34;4.70;;;2.60;;
20375;SDS011;10347;51.828;6.466;2023-08-01T09:08:13;4.10;;;2.65;;
20375;SDS011;10347;51.828;6.466;2023-08-01T09:10:42;4.55;;;2.25;;
20375;SDS011;10347;51.828;6.466;2023-08-01T09:13:08;3.80;;;2.33;;
20375;SDS011;10347;51.828;6.466;2023-08-01T09:15:34;3.63;;;2.05;;
20375;SDS011;10347;51.828;6.466;2023-08-01T09:18:05;4.45;;;2.00;;
20375;SDS011;10347;51.828;6.466;2023-08-01T09:23:10;4.25;;;2.10;;
20375;SDS011;10347;51.828;6.466;2023-08-01T09:25:36;6.60;;;2.60;;
20375;SDS011;10347;51.828;6.466;2023-08-01T09:28:02;8.07;;;2.95;;
20375;SDS011;10347;51.828;6.466;2023-08-01T09:30:28;9.45;;;2.92;;
20375;SDS011;10347;51.828;6.466;2023-08-01T09:32:54;8.10;;;3.70;;
20375;SDS011;10347;51.828;6.466;2023-08-01T09:35:20;7.07;;;3.90;;
20375;SDS011;10347;51.828;6.466;2023-08-01T09:37:46;4.20;;;2.92;;
20375;SDS011;10347;51.828;6.466;2023-08-01T09:40:13;3.53;;;2.83;;
20375;SDS011;10347;51.828;6.466;2023-08-01T09:42:42;3.92;;;2.97;;
20375;SDS011;10347;51.828;6.466;2023-08-01T09:45:12;6.07;;;3.47;;
20375;SDS011;10347;51.828;6.466;2023-08-01T09:47:42;6.30;;;2.83;;
20375;SDS011;10347;51.828;6.466;2023-08-01T09:50:09;4.72;;;2.88;;
20375;SDS011;10347;51.828;6.466;2023-08-01T09:52:39;7.22;;;2.72;;
20375;SDS011;10347;51.828;6.466;2023-08-01T09:55:06;5.18;;;2.97;;
20375;SDS011;10347;51.828;6.466;2023-08-01T09:57:32;3.75;;;2.30;;
20375;SDS011;10347;51.828;6.466;2023-08-01T10:00:02;8.90;;;3.25;;
20375;SDS011;10347;51.828;6.466;2023-08-01T10:02:29;4.85;;;2.97;;
20375;SDS011;10347;51.828;6.466;2023-08-01T10:04:57;5.30;;;2.78;;
20375;SDS011;10347;51.828;6.466;2023-08-01T10:07:25;4.38;;;2.63;;
20375;SDS011;10347;51.828;6.466;2023-08-01T10:09:54;5.82;;;2.75;;
20375;SDS011;10347;51.828;6.466;2023-08-01T10:12:23;5.25;;;2.38;;
20375;SDS011;10347;51.828;6.466;2023-08-01T10:14:52;3.40;;;2.58;;
20375;SDS011;10347;51.828;6.466;2023-08-01T10:17:18;5.45;;;2.42;;
20375;SDS011;10347;51.828;6.466;2023-08-01T10:19:45;6.05;;;2.80;;
20375;SDS011;10347;51.828;6.466;2023-08-01T10:22:13;4.20;;;2.28;;
20375;SDS011;10347;51.828;6.466;2023-08-01T10:24:39;3.90;;;2.03;;
20375;SDS011;10347;51.828;6.466;2023-08-01T10:27:23;5.10;;;2.42;;
20375;SDS011;10347;51.828;6.466;2023-08-01T10:32:31;5.28;;;2.63;;
20375;SDS011;10347;51.828;6.466;2023-08-01T10:34:59;4.43;;;2.63;;
20375;SDS011;10347;51.828;6.466;2023-08-01T10:37:25;5.28;;;2.22;;
20375;SDS011;10347;51.828;6.466;2023-08-01T10:39:58;6.57;;;2.60;;
20375;SDS011;10347;51.828;6.466;2023-08-01T10:42:24;5.38;;;2.25;;
20375;SDS011;10347;51.828;6.466;2023-08-01T10:44:50;5.72;;;2.55;;
20375;SDS011;10347;51.828;6.466;2023-08-01T10:47:24;3.10;;;2.22;;
20375;SDS011;10347;51.828;6.466;2023-08-01T10:49:51;4.53;;;2.05;;
20375;SDS011;10347;51.828;6.466;2023-08-01T10:52:18;6.55;;;1.92;;
20375;SDS011;10347;51.828;6.466;2023-08-01T10:54:45;4.47;;;2.20;;
20375;SDS011;10347;51.828;6.466;2023-08-01T10:57:17;3.03;;;1.75;;
20375;SDS011;10347;51.828;6.466;2023-08-01T10:59:43;8.68;;;2.35;;
20375;SDS011;10347;51.828;6.466;2023-08-01T11:02:09;4.05;;;2.50;;
20375;SDS011;10347;51.828;6.466;2023-08-01T11:04:35;6.10;;;2.50;;
20375;SDS011;10347;51.828;6.466;2023-08-01T11:07:01;5.18;;;2.45;;
20375;SDS011;10347;51.828;6.466;2023-08-01T11:09:27;3.95;;;2.42;;
20375;SDS011;10347;51.828;6.466;2023-08-01T11:11:57;4.65;;;2.03;;
20375;SDS011;10347;51.828;6.466;2023-08-01T11:14:27;3.67;;;2.03;;
20375;SDS011;10347;51.828;6.466;2023-08-01T11:16:54;5.68;;;2.22;;
20375;SDS011;10347;51.828;6.466;2023-08-01T11:19:22;6.35;;;2.15;;
20375;SDS011;10347;51.828;6.466;2023-08-01T11:21:52;3.38;;;1.83;;
20375;SDS011;10347;51.828;6.466;2023-08-01T11:24:21;4.28;;;2.20;;
20375;SDS011;10347;51.828;6.466;2023-08-01T11:26:48;3.08;;;2.00;;
20375;SDS011;10347;51.828;6.466;2023-08-01T11:29:15;8.80;;;2.65;;
20375;SDS011;10347;51.828;6.466;2023-08-01T11:31:41;5.93;;;2.17;;
20375;SDS011;10347;51.828;6.466;2023-08-01T11:34:17;5.97;;;2.00;;
20375;SDS011;10347;51.828;6.466;2023-08-01T11:36:43;4.88;;;2.33;;
20375;SDS011;10347;51.828;6.466;2023-08-01T11:39:10;3.05;;;1.83;;
20375;SDS011;10347;51.828;6.466;2023-08-01T11:41:37;3.70;;;1.90;;
20375;SDS011;10347;51.828;6.466;2023-08-01T11:44:04;3.15;;;2.00;;
20375;SDS011;10347;51.828;6.466;2023-08-01T11:46:33;3.35;;;1.85;;
20375;SDS011;10347;51.828;6.466;2023-08-01T11:49:00;4.75;;;2.17;;
20375;SDS011;10347;51.828;6.466;2023-08-01T11:51:26;5.35;;;2.00;;
20375;SDS011;10347;51.828;6.466;2023-08-01T11:54:02;4.93;;;2.10;;
20375;SDS011;10347;51.828;6.466;2023-08-01T11:56:29;4.00;;;1.85;;
20375;SDS011;10347;51.828;6.466;2023-08-01T11:58:57;3.72;;;1.80;;
20375;SDS011;10347;51.828;6.466;2023-08-01T12:01:23;6.57;;;2.08;;
20375;SDS011;10347;51.828;6.466;2023-08-01T12:03:53;4.80;;;1.85;;
20375;SDS011;10347;51.828;6.466;2023-08-01T12:06:20;7.65;;;2.20;;
20375;SDS011;10347;51.828;6.466;2023-08-01T12:08:48;4.80;;;1.98;;
20375;SDS011;10347;51.828;6.466;2023-08-01T12:11:19;2.28;;;1.50;;
20375;SDS011;10347;51.828;6.466;2023-08-01T12:13:48;2.08;;;1.70;;
20375;SDS011;10347;51.828;6.466;2023-08-01T12:16:26;3.50;;;1.92;;
20375;SDS011;10347;51.828;6.466;2023-08-01T12:18:52;6.78;;;2.10;;
20375;SDS011;10347;51.828;6.466;2023-08-01T12:21:17;4.13;;;2.00;;
20375;SDS011;10347;51.828;6.466;2023-08-01T12:23:43;3.38;;;1.90;;
20375;SDS011;10347;51.828;6.466;2023-08-01T12:26:08;2.80;;;1.48;;
20375;SDS011;10347;51.828;6.466;2023-08-01T12:28:34;3.85;;;1.85;;
20375;SDS011;10347;51.828;6.466;2023-08-01T12:31:00;6.82;;;2.45;;
20375;SDS011;10347;51.828;6.466;2023-08-01T12:33:26;6.07;;;2.30;;
20375;SDS011;10347;51.828;6.466;2023-08-01T12:35:51;3.25;;;1.55;;
20375;SDS011;10347;51.828;6.466;2023-08-01T12:38:17;5.68;;;1.73;;
20375;SDS011;10347;51.828;6.466;2023-08-01T12:40:42;6.47;;;1.77;;
20375;SDS011;10347;51.828;6.466;2023-08-01T12:43:08;3.83;;;1.70;;
20375;SDS011;10347;51.828;6.466;2023-08-01T12:45:33;2.85;;;1.55;;
20375;SDS011;10347;51.828;6.466;2023-08-01T12:47:59;1.48;;;1.35;;
20375;SDS011;10347;51.828;6.466;2023-08-01T12:50:25;2.13;;;1.83;;
20375;SDS011;10347;51.828;6.466;2023-08-01T12:52:51;4.50;;;2.08;;
20375;SDS011;10347;51.828;6.466;2023-08-01T12:55:16;2.97;;;1.50;;
20375;SDS011;10347;51.828;6.466;2023-08-01T12:57:42;4.22;;;1.60;;
20375;SDS011;10347;51.828;6.466;2023-08-01T13:00:08;4.75;;;1.77;;
20375;SDS011;10347;51.828;6.466;2023-08-01T13:02:35;5.38;;;1.50;;
20375;SDS011;10347;51.828;6.466;2023-08-01T13:05:02;3.78;;;1.60;;
20375;SDS011;10347;51.828;6.466;2023-08-01T13:07:27;4.70;;;1.42;;
20375;SDS011;10347;51.828;6.466;2023-08-01T13:09:56;4.20;;;1.70;;
20375;SDS011;10347;51.828;6.466;2023-08-01T13:12:22;3.38;;;1.42;;
20375;SDS011;10347;51.828;6.466;2023-08-01T13:14:47;5.32;;;1.60;;
20375;SDS011;10347;51.828;6.466;2023-08-01T13:17:13;1.70;;;1.38;;
20375;SDS011;10347;51.828;6.466;2023-08-01T13:19:38;3.83;;;1.50;;
20375;SDS011;10347;51.828;6.466;2023-08-01T13:22:04;3.20;;;1.48;;
20375;SDS011;10347;51.828;6.466;2023-08-01T13:24:30;2.85;;;1.50;;
20375;SDS011;10347;51.828;6.466;2023-08-01T13:26:55;3.47;;;1.65;;
20375;SDS011;10347;51.828;6.466;2023-08-01T13:29:21;4.07;;;1.50;;
20375;SDS011;10347;51.828;6.466;2023-08-01T13:31:47;3.30;;;1.35;;
20375;SDS011;10347;51.828;6.466;2023-08-01T13:34:12;2.97;;;1.30;;
20375;SDS011;10347;51.828;6.466;2023-08-01T13:36:38;2.58;;;1.70;;
20375;SDS011;10347;51.828;6.466;2023-08-01T13:39:03;4.72;;;1.50;;
20375;SDS011;10347;51.828;6.466;2023-08-01T13:41:29;2.55;;;1.40;;
20375;SDS011;10347;51.828;6.466;2023-08-01T13:43:54;6.03;;;1.75;;
20375;SDS011;10347;51.828;6.466;2023-08-01T13:46:20;4.85;;;1.75;;
20375;SDS011;10347;51.828;6.466;2023-08-01T13:48:46;4.05;;;1.25;;
20375;SDS011;10347;51.828;6.466;2023-08-01T13:51:12;3.72;;;1.42;;
20375;SDS011;10347;51.828;6.466;2023-08-01T13:53:38;2.83;;;1.40;;
20375;SDS011;10347;51.828;6.466;2023-08-01T13:56:09;7.45;;;1.58;;
20375;SDS011;10347;51.828;6.466;2023-08-01T13:58:35;4.25;;;1.40;;
20375;SDS011;10347;51.828;6.466;2023-08-01T14:01:02;3.15;;;1.52;;
20375;SDS011;10347;51.828;6.466;2023-08-01T14:03:37;4.78;;;2.17;;
20375;SDS011;10347;51.828;6.466;2023-08-01T14:06:05;13.65;;;2.70;;
20375;SDS011;10347;51.828;6.466;2023-08-01T14:08:32;5.18;;;2.70;;
20375;SDS011;10347;51.828;6.466;2023-08-01T14:10:58;5.95;;;2.17;;
20375;SDS011;10347;51.828;6.466;2023-08-01T14:13:24;3.95;;;2.22;;
20375;SDS011;10347;51.828;6.466;2023-08-01T14:15:49;8.02;;;2.63;;
20375;SDS011;10347;51.828;6.466;2023-08-01T14:18:16;7.30;;;3.30;;
20375;SDS011;10347;51.828;6.466;2023-08-01T14:20:42;7.10;;;2.15;;
20375;SDS011;10347;51.828;6.466;2023-08-01T14:23:07;5.15;;;1.85;;
20375;SDS011;10347;51.828;6.466;2023-08-01T14:25:33;3.85;;;1.33;;
20375;SDS011;10347;51.828;6.466;2023-08-01T14:27:59;4.15;;;1.65;;
20375;SDS011;10347;51.828;6.466;2023-08-01T14:30:25;5.38;;;1.77;;
20375;SDS011;10347;51.828;6.466;2023-08-01T14:32:50;4.85;;;1.92;;
20375;SDS011;10347;51.828;6.466;2023-08-01T14:35:16;2.50;;;1.40;;
20375;SDS011;10347;51.828;6.466;2023-08-01T14:37:41;3.42;;;1.52;;
20375;SDS011;10347;51.828;6.466;2023-08-01T14:40:10;4.13;;;1.70;;
20375;SDS011;10347;51.828;6.466;2023-08-01T14:42:36;3.88;;;1.45;;
20375;SDS011;10347;51.828;6.466;2023-08-01T14:45:02;3.92;;;1.40;;